sensor_id;sensor_type;location;lat;lon;timestamp;temperature;humidity
1888;DHT22;944;51.574;6.980;2022-07-06T00:00:05;13.90;99.90
1888;DHT22;944;51.574;6.980;2022-07-06T00:02:35;13.90;99.90
1888;DHT22;944;51.574;6.980;2022-07-06T00:05:07;13.80;99.90
1888;DHT22;944;51.574;6.980;2022-07-06T00:07:37;13.80;99.90
1888;DHT22;944;51.574;6.980;2022-07-06T00:10:05;13.60;99.90
1888;DHT22;944;51.574;6.980;2022-07-06T00:12:33;13.60;99.90
1888;DHT22;944;51.574;6.980;2022-07-06T00:15:00;13.50;99.90
1888;DHT22;944;51.574;6.980;2022-07-06T00:17:27;13.50;99.90
1888;DHT22;944;51.574;6.980;2022-07-06T00:19:54;13.50;99.90
1888;DHT22;944;51.574;6.980;2022-07-06T00:22:22;13.50;99.90
1888;DHT22;944;51.574;6.980;2022-07-06T00:24:49;13.50;99.90
1888;DHT22;944;51.574;6.980;2022-07-06T00:27:17;13.50;99.90
1888;DHT22;944;51.574;6.980;2022-07-06T00:29:44;13.40;99.90
1888;DHT22;944;51.574;6.980;2022-07-06T00:32:14;13.50;99.90
1888;DHT22;944;51.574;6.980;2022-07-06T00:34:41;13.40;99.90
1888;DHT22;944;51.574;6.980;2022-07-06T00:37:08;13.30;99.90
1888;DHT22;944;51.574;6.980;2022-07-06T00:39:37;13.30;99.90
1888;DHT22;944;51.574;6.980;2022-07-06T00:42:04;13.30;99.90
1888;DHT22;944;51.574;6.980;2022-07-06T00:44:34;13.30;99.90
1888;DHT22;944;51.574;6.980;2022-07-06T00:47:01;13.30;99.90
1888;DHT22;944;51.574;6.980;2022-07-06T00:49:28;13.30;99.90
1888;DHT22;944;51.574;6.980;2022-07-06T00:52:09;13.30;99.90
1888;DHT22;944;51.574;6.980;2022-07-06T00:54:41;13.30;99.90
1888;DHT22;944;51.574;6.980;2022-07-06T00:57:09;13.30;99.90
1888;DHT22;944;51.574;6.980;2022-07-06T00:59:37;13.40;99.90
1888;DHT22;944;51.574;6.980;2022-07-06T01:02:04;13.30;99.90
1888;DHT22;944;51.574;6.980;2022-07-06T01:04:31;13.40;99.90
1888;DHT22;944;51.574;6.980;2022-07-06T01:06:58;13.40;99.90
1888;DHT22;944;51.574;6.980;2022-07-06T01:09:25;13.50;99.90
1888;DHT22;944;51.574;6.980;2022-07-06T01:11:54;13.40;99.90
1888;DHT22;944;51.574;6.980;2022-07-06T01:14:21;13.50;99.90
1888;DHT22;944;51.574;6.980;2022-07-06T01:16:49;13.50;99.90
1888;DHT22;944;51.574;6.980;2022-07-06T01:19:16;13.40;99.90
1888;DHT22;944;51.574;6.980;2022-07-06T01:21:44;13.40;99.90
1888;DHT22;944;51.574;6.980;2022-07-06T01:24:11;13.20;99.90
1888;DHT22;944;51.574;6.980;2022-07-06T01:26:39;13.10;99.90
1888;DHT22;944;51.574;6.980;2022-07-06T01:29:06;13.20;99.90
1888;DHT22;944;51.574;6.980;2022-07-06T01:31:33;13.10;99.90
1888;DHT22;944;51.574;6.980;2022-07-06T01:34:00;13.00;99.90
1888;DHT22;944;51.574;6.980;2022-07-06T01:36:27;13.00;99.90
1888;DHT22;944;51.574;6.980;2022-07-06T01:38:56;12.90;99.90
1888;DHT22;944;51.574;6.980;2022-07-06T01:41:24;12.90;99.90
1888;DHT22;944;51.574;6.980;2022-07-06T01:43:51;12.90;99.90
1888;DHT22;944;51.574;6.980;2022-07-06T01:46:18;12.80;99.90
1888;DHT22;944;51.574;6.980;2022-07-06T01:48:46;12.70;99.90
1888;DHT22;944;51.574;6.980;2022-07-06T01:51:13;12.80;99.90
1888;DHT22;944;51.574;6.980;2022-07-06T01:53:40;12.80;99.90
1888;DHT22;944;51.574;6.980;2022-07-06T01:56:09;12.80;99.90
1888;DHT22;944;51.574;6.980;2022-07-06T01:58:40;12.70;99.90
1888;DHT22;944;51.574;6.980;2022-07-06T02:01:11;12.70;99.90
1888;DHT22;944;51.574;6.980;2022-07-06T02:03:42;12.70;99.90
1888;DHT22;944;51.574;6.980;2022-07-06T02:06:12;12.60;99.90
1888;DHT22;944;51.574;6.980;2022-07-06T02:08:41;12.50;99.90
1888;DHT22;944;51.574;6.980;2022-07-06T02:11:10;12.70;99.90
1888;DHT22;944;51.574;6.980;2022-07-06T02:13:40;12.40;99.90
1888;DHT22;944;51.574;6.980;2022-07-06T02:16:10;12.60;99.90
1888;DHT22;944;51.574;6.980;2022-07-06T02:18:40;12.50;99.90
1888;DHT22;944;51.574;6.980;2022-07-06T02:21:07;12.60;99.90
1888;DHT22;944;51.574;6.980;2022-07-06T02:23:34;12.60;99.90
1888;DHT22;944;51.574;6.980;2022-07-06T02:26:03;12.60;99.90
1888;DHT22;944;51.574;6.980;2022-07-06T02:28:32;12.60;99.90
1888;DHT22;944;51.574;6.980;2022-07-06T02:30:59;12.50;99.90
1888;DHT22;944;51.574;6.980;2022-07-06T02:37:06;12.50;99.90
1888;DHT22;944;51.574;6.980;2022-07-06T02:39:34;12.50;99.90
1888;DHT22;944;51.574;6.980;2022-07-06T02:42:04;12.50;99.90
1888;DHT22;944;51.574;6.980;2022-07-06T02:44:32;12.50;99.90
1888;DHT22;944;51.574;6.980;2022-07-06T02:47:03;12.50;99.90
1888;DHT22;944;51.574;6.980;2022-07-06T02:49:33;12.50;99.90
1888;DHT22;944;51.574;6.980;2022-07-06T02:52:00;12.60;99.90
1888;DHT22;944;51.574;6.980;2022-07-06T02:54:27;12.70;99.90
1888;DHT22;944;51.574;6.980;2022-07-06T02:56:53;12.70;99.90
1888;DHT22;944;51.574;6.980;2022-07-06T02:59:21;12.60;99.90
1888;DHT22;944;51.574;6.980;2022-07-06T03:01:49;12.70;99.90
1888;DHT22;944;51.574;6.980;2022-07-06T03:04:23;12.60;99.90
1888;DHT22;944;51.574;6.980;2022-07-06T03:06:53;12.70;99.90
1888;DHT22;944;51.574;6.980;2022-07-06T03:09:20;12.60;99.90
1888;DHT22;944;51.574;6.980;2022-07-06T03:11:47;12.60;99.90
1888;DHT22;944;51.574;6.980;2022-07-06T03:14:14;12.60;99.90
1888;DHT22;944;51.574;6.980;2022-07-06T03:16:42;12.60;99.90
1888;DHT22;944;51.574;6.980;2022-07-06T03:19:11;12.50;99.90
1888;DHT22;944;51.574;6.980;2022-07-06T03:21:38;12.40;99.90
1888;DHT22;944;51.574;6.980;2022-07-06T03:24:05;12.50;99.90
1888;DHT22;944;51.574;6.980;2022-07-06T03:26:32;12.40;99.90
1888;DHT22;944;51.574;6.980;2022-07-06T03:28:59;12.50;99.90
1888;DHT22;944;51.574;6.980;2022-07-06T03:31:29;12.50;99.90
1888;DHT22;944;51.574;6.980;2022-07-06T03:33:57;12.60;99.90
1888;DHT22;944;51.574;6.980;2022-07-06T03:36:25;12.60;99.90
1888;DHT22;944;51.574;6.980;2022-07-06T03:38:55;12.40;99.90
1888;DHT22;944;51.574;6.980;2022-07-06T03:41:22;12.50;99.90
1888;DHT22;944;51.574;6.980;2022-07-06T03:43:49;12.60;99.90
1888;DHT22;944;51.574;6.980;2022-07-06T03:46:17;12.70;99.90
1888;DHT22;944;51.574;6.980;2022-07-06T03:48:44;12.70;99.90
1888;DHT22;944;51.574;6.980;2022-07-06T03:51:11;12.70;99.90
1888;DHT22;944;51.574;6.980;2022-07-06T03:53:42;12.70;99.90
1888;DHT22;944;51.574;6.980;2022-07-06T03:56:09;12.80;99.90
1888;DHT22;944;51.574;6.980;2022-07-06T03:58:54;12.70;99.90
1888;DHT22;944;51.574;6.980;2022-07-06T04:01:21;12.80;99.90
1888;DHT22;944;51.574;6.980;2022-07-06T04:03:48;12.80;99.90
1888;DHT22;944;51.574;6.980;2022-07-06T04:06:15;12.80;99.90
1888;DHT22;944;51.574;6.980;2022-07-06T04:08:47;13.00;99.90
1888;DHT22;944;51.574;6.980;2022-07-06T04:11:14;13.00;99.90
1888;DHT22;944;51.574;6.980;2022-07-06T04:13:43;13.00;99.90
1888;DHT22;944;51.574;6.980;2022-07-06T04:16:10;13.00;99.90
1888;DHT22;944;51.574;6.980;2022-07-06T04:18:40;13.00;99.90
1888;DHT22;944;51.574;6.980;2022-07-06T04:21:14;13.20;99.90
1888;DHT22;944;51.574;6.980;2022-07-06T04:23:42;13.20;99.90
1888;DHT22;944;51.574;6.980;2022-07-06T04:26:11;13.30;99.90
1888;DHT22;944;51.574;6.980;2022-07-06T04:28:41;13.20;99.90
1888;DHT22;944;51.574;6.980;2022-07-06T04:31:10;13.30;99.90
1888;DHT22;944;51.574;6.980;2022-07-06T04:33:43;13.30;99.90
1888;DHT22;944;51.574;6.980;2022-07-06T04:36:13;13.10;99.90
1888;DHT22;944;51.574;6.980;2022-07-06T04:38:40;13.20;99.90
1888;DHT22;944;51.574;6.980;2022-07-06T04:41:07;13.30;99.90
1888;DHT22;944;51.574;6.980;2022-07-06T04:43:43;13.30;99.90
1888;DHT22;944;51.574;6.980;2022-07-06T04:46:10;13.00;99.90
1888;DHT22;944;51.574;6.980;2022-07-06T04:48:40;13.00;99.90
1888;DHT22;944;51.574;6.980;2022-07-06T04:51:09;13.10;99.90
1888;DHT22;944;51.574;6.980;2022-07-06T04:53:36;13.10;99.90
1888;DHT22;944;51.574;6.980;2022-07-06T04:56:03;13.20;99.90
1888;DHT22;944;51.574;6.980;2022-07-06T04:58:30;13.20;99.90
1888;DHT22;944;51.574;6.980;2022-07-06T05:00:59;13.20;99.90
1888;DHT22;944;51.574;6.980;2022-07-06T05:03:26;13.40;99.90
1888;DHT22;944;51.574;6.980;2022-07-06T05:05:52;13.50;99.90
1888;DHT22;944;51.574;6.980;2022-07-06T05:08:20;13.50;99.90
1888;DHT22;944;51.574;6.980;2022-07-06T05:10:48;13.70;99.90
1888;DHT22;944;51.574;6.980;2022-07-06T05:13:14;13.60;99.90
1888;DHT22;944;51.574;6.980;2022-07-06T05:15:44;13.70;99.90
1888;DHT22;944;51.574;6.980;2022-07-06T05:18:12;13.70;99.90
1888;DHT22;944;51.574;6.980;2022-07-06T05:20:39;13.70;99.90
1888;DHT22;944;51.574;6.980;2022-07-06T05:23:06;13.80;99.90
1888;DHT22;944;51.574;6.980;2022-07-06T05:25:33;13.80;99.90
1888;DHT22;944;51.574;6.980;2022-07-06T05:28:02;13.80;99.90
1888;DHT22;944;51.574;6.980;2022-07-06T05:30:29;13.80;99.90
1888;DHT22;944;51.574;6.980;2022-07-06T05:32:56;14.00;99.90
1888;DHT22;944;51.574;6.980;2022-07-06T05:35:25;14.20;99.90
1888;DHT22;944;51.574;6.980;2022-07-06T05:37:52;14.40;99.90
1888;DHT22;944;51.574;6.980;2022-07-06T05:40:19;14.50;99.90
1888;DHT22;944;51.574;6.980;2022-07-06T05:42:46;14.50;99.90
1888;DHT22;944;51.574;6.980;2022-07-06T05:45:13;14.70;99.90
1888;DHT22;944;51.574;6.980;2022-07-06T05:47:40;14.80;99.90
1888;DHT22;944;51.574;6.980;2022-07-06T05:50:26;15.00;99.90
1888;DHT22;944;51.574;6.980;2022-07-06T05:56:34;15.20;99.90
1888;DHT22;944;51.574;6.980;2022-07-06T05:59:01;15.20;99.90
1888;DHT22;944;51.574;6.980;2022-07-06T06:01:28;15.30;99.90
1888;DHT22;944;51.574;6.980;2022-07-06T06:03:55;15.20;99.90
1888;DHT22;944;51.574;6.980;2022-07-06T06:06:23;15.30;99.90
1888;DHT22;944;51.574;6.980;2022-07-06T06:12:31;15.50;99.90
1888;DHT22;944;51.574;6.980;2022-07-06T06:15:00;15.50;99.90
1888;DHT22;944;51.574;6.980;2022-07-06T06:17:28;15.50;99.90
1888;DHT22;944;51.574;6.980;2022-07-06T06:19:55;15.50;99.90
1888;DHT22;944;51.574;6.980;2022-07-06T06:22:23;15.60;99.90
1888;DHT22;944;51.574;6.980;2022-07-06T06:24:51;15.70;99.90
1888;DHT22;944;51.574;6.980;2022-07-06T06:27:18;15.80;99.90
1888;DHT22;944;51.574;6.980;2022-07-06T06:33:26;16.00;99.90
1888;DHT22;944;51.574;6.980;2022-07-06T06:35:53;16.10;99.90
1888;DHT22;944;51.574;6.980;2022-07-06T06:38:23;16.00;99.90
1888;DHT22;944;51.574;6.980;2022-07-06T06:40:52;16.00;99.90
1888;DHT22;944;51.574;6.980;2022-07-06T06:43:19;16.10;99.90
1888;DHT22;944;51.574;6.980;2022-07-06T06:45:46;16.20;99.90
1888;DHT22;944;51.574;6.980;2022-07-06T06:48:13;16.40;99.90
1888;DHT22;944;51.574;6.980;2022-07-06T06:50:40;16.50;99.90
1888;DHT22;944;51.574;6.980;2022-07-06T06:53:07;16.60;99.90
1888;DHT22;944;51.574;6.980;2022-07-06T06:55:36;16.70;99.90
1888;DHT22;944;51.574;6.980;2022-07-06T06:58:24;17.00;99.90
1888;DHT22;944;51.574;6.980;2022-07-06T07:01:20;17.20;99.90
1888;DHT22;944;51.574;6.980;2022-07-06T07:04:09;17.30;99.90
1888;DHT22;944;51.574;6.980;2022-07-06T07:06:36;17.40;99.90
1888;DHT22;944;51.574;6.980;2022-07-06T07:12:46;17.30;99.90
1888;DHT22;944;51.574;6.980;2022-07-06T07:15:14;17.60;99.90
1888;DHT22;944;51.574;6.980;2022-07-06T07:17:42;18.00;99.90
1888;DHT22;944;51.574;6.980;2022-07-06T07:20:11;18.10;99.90
1888;DHT22;944;51.574;6.980;2022-07-06T07:22:38;18.00;99.90
1888;DHT22;944;51.574;6.980;2022-07-06T07:25:08;18.00;99.90
1888;DHT22;944;51.574;6.980;2022-07-06T07:27:35;18.00;99.90
1888;DHT22;944;51.574;6.980;2022-07-06T07:30:07;18.20;99.90
1888;DHT22;944;51.574;6.980;2022-07-06T07:32:35;18.40;99.90
1888;DHT22;944;51.574;6.980;2022-07-06T07:35:03;18.20;99.90
1888;DHT22;944;51.574;6.980;2022-07-06T07:37:32;18.60;99.90
1888;DHT22;944;51.574;6.980;2022-07-06T07:40:03;18.80;99.90
1888;DHT22;944;51.574;6.980;2022-07-06T07:42:31;19.00;99.90
1888;DHT22;944;51.574;6.980;2022-07-06T07:45:09;19.20;99.90
1888;DHT22;944;51.574;6.980;2022-07-06T07:47:39;19.50;99.90
1888;DHT22;944;51.574;6.980;2022-07-06T07:50:11;19.60;99.90
1888;DHT22;944;51.574;6.980;2022-07-06T07:52:40;19.60;99.90
1888;DHT22;944;51.574;6.980;2022-07-06T07:55:10;19.80;99.90
1888;DHT22;944;51.574;6.980;2022-07-06T07:57:37;19.80;99.90
1888;DHT22;944;51.574;6.980;2022-07-06T08:00:07;20.10;99.90
1888;DHT22;944;51.574;6.980;2022-07-06T08:02:37;19.80;99.90
1888;DHT22;944;51.574;6.980;2022-07-06T08:05:05;19.90;99.90
1888;DHT22;944;51.574;6.980;2022-07-06T08:07:33;20.00;99.90
1888;DHT22;944;51.574;6.980;2022-07-06T08:10:00;20.00;99.90
1888;DHT22;944;51.574;6.980;2022-07-06T08:12:29;19.90;99.90
1888;DHT22;944;51.574;6.980;2022-07-06T08:14:59;19.80;99.90
1888;DHT22;944;51.574;6.980;2022-07-06T08:20:55;19.70;99.90
1888;DHT22;944;51.574;6.980;2022-07-06T08:23:22;19.90;99.90
1888;DHT22;944;51.574;6.980;2022-07-06T08:26:07;19.90;99.90
1888;DHT22;944;51.574;6.980;2022-07-06T08:36:27;19.00;99.90
1888;DHT22;944;51.574;6.980;2022-07-06T08:39:05;18.90;99.90
1888;DHT22;944;51.574;6.980;2022-07-06T08:43:17;19.40;99.90
1888;DHT22;944;51.574;6.980;2022-07-06T08:56:33;20.20;99.90
1888;DHT22;944;51.574;6.980;2022-07-06T08:59:03;20.00;99.90
1888;DHT22;944;51.574;6.980;2022-07-06T09:01:35;19.70;99.90
1888;DHT22;944;51.574;6.980;2022-07-06T09:04:09;19.80;99.90
1888;DHT22;944;51.574;6.980;2022-07-06T09:06:42;19.80;99.90
1888;DHT22;944;51.574;6.980;2022-07-06T09:09:20;20.00;99.90
1888;DHT22;944;51.574;6.980;2022-07-06T09:16:15;19.90;99.90
1888;DHT22;944;51.574;6.980;2022-07-06T09:18:44;19.70;99.90
1888;DHT22;944;51.574;6.980;2022-07-06T09:21:22;19.40;99.90
1888;DHT22;944;51.574;6.980;2022-07-06T09:23:53;19.30;99.90
1888;DHT22;944;51.574;6.980;2022-07-06T09:26:22;19.30;99.90
1888;DHT22;944;51.574;6.980;2022-07-06T09:28:55;19.60;99.90
1888;DHT22;944;51.574;6.980;2022-07-06T09:31:28;20.20;99.90
1888;DHT22;944;51.574;6.980;2022-07-06T09:33:56;20.60;99.90
1888;DHT22;944;51.574;6.980;2022-07-06T09:40:16;20.10;99.90
1888;DHT22;944;51.574;6.980;2022-07-06T09:42:44;20.10;99.90
1888;DHT22;944;51.574;6.980;2022-07-06T09:45:11;20.20;99.90
1888;DHT22;944;51.574;6.980;2022-07-06T09:47:46;20.40;99.90
1888;DHT22;944;51.574;6.980;2022-07-06T09:50:15;20.10;99.90
1888;DHT22;944;51.574;6.980;2022-07-06T09:52:53;20.30;99.90
1888;DHT22;944;51.574;6.980;2022-07-06T09:59:07;20.60;99.90
1888;DHT22;944;51.574;6.980;2022-07-06T10:01:36;21.10;99.90
1888;DHT22;944;51.574;6.980;2022-07-06T10:04:07;21.40;99.90
1888;DHT22;944;51.574;6.980;2022-07-06T10:06:34;20.80;99.90
1888;DHT22;944;51.574;6.980;2022-07-06T10:09:05;20.70;99.90
1888;DHT22;944;51.574;6.980;2022-07-06T10:11:38;20.70;99.90
1888;DHT22;944;51.574;6.980;2022-07-06T10:14:23;20.70;99.90
1888;DHT22;944;51.574;6.980;2022-07-06T10:16:52;21.10;99.90
1888;DHT22;944;51.574;6.980;2022-07-06T10:19:21;21.20;99.90
1888;DHT22;944;51.574;6.980;2022-07-06T10:21:48;21.10;99.90
1888;DHT22;944;51.574;6.980;2022-07-06T10:24:18;21.10;99.90
1888;DHT22;944;51.574;6.980;2022-07-06T10:26:46;21.00;99.90
1888;DHT22;944;51.574;6.980;2022-07-06T10:29:13;20.80;99.90
1888;DHT22;944;51.574;6.980;2022-07-06T10:31:44;20.80;99.90
1888;DHT22;944;51.574;6.980;2022-07-06T10:34:13;20.60;99.90
1888;DHT22;944;51.574;6.980;2022-07-06T10:36:43;20.60;99.90
1888;DHT22;944;51.574;6.980;2022-07-06T10:39:11;21.00;99.90
1888;DHT22;944;51.574;6.980;2022-07-06T10:41:58;21.30;99.90
1888;DHT22;944;51.574;6.980;2022-07-06T10:44:28;21.40;99.90
1888;DHT22;944;51.574;6.980;2022-07-06T10:46:56;21.60;99.90
1888;DHT22;944;51.574;6.980;2022-07-06T10:49:25;21.90;99.90
1888;DHT22;944;51.574;6.980;2022-07-06T10:51:56;22.10;99.90
1888;DHT22;944;51.574;6.980;2022-07-06T10:54:41;21.90;99.90
1888;DHT22;944;51.574;6.980;2022-07-06T10:57:10;21.60;99.90
1888;DHT22;944;51.574;6.980;2022-07-06T10:59:40;21.20;99.90
1888;DHT22;944;51.574;6.980;2022-07-06T11:02:14;21.10;99.90
1888;DHT22;944;51.574;6.980;2022-07-06T11:04:41;21.00;99.90
1888;DHT22;944;51.574;6.980;2022-07-06T11:07:12;20.90;99.90
1888;DHT22;944;51.574;6.980;2022-07-06T11:09:40;20.90;99.90
1888;DHT22;944;51.574;6.980;2022-07-06T11:12:15;21.00;99.90
1888;DHT22;944;51.574;6.980;2022-07-06T11:14:46;21.20;99.90
1888;DHT22;944;51.574;6.980;2022-07-06T11:21:19;21.00;99.90
1888;DHT22;944;51.574;6.980;2022-07-06T11:23:52;20.80;99.90
1888;DHT22;944;51.574;6.980;2022-07-06T11:26:21;20.90;99.90
1888;DHT22;944;51.574;6.980;2022-07-06T11:28:51;20.80;99.90
1888;DHT22;944;51.574;6.980;2022-07-06T11:31:21;21.00;99.90
1888;DHT22;944;51.574;6.980;2022-07-06T11:33:50;21.40;99.90
1888;DHT22;944;51.574;6.980;2022-07-06T11:36:19;21.70;99.90
1888;DHT22;944;51.574;6.980;2022-07-06T11:42:38;22.00;99.90
1888;DHT22;944;51.574;6.980;2022-07-06T11:45:06;22.10;99.90
1888;DHT22;944;51.574;6.980;2022-07-06T11:47:34;22.40;99.90
1888;DHT22;944;51.574;6.980;2022-07-06T11:50:01;22.60;99.90
1888;DHT22;944;51.574;6.980;2022-07-06T11:52:30;22.70;99.90
1888;DHT22;944;51.574;6.980;2022-07-06T11:54:58;22.60;99.90
1888;DHT22;944;51.574;6.980;2022-07-06T11:57:32;22.30;99.90
1888;DHT22;944;51.574;6.980;2022-07-06T12:00:05;22.20;99.90
1888;DHT22;944;51.574;6.980;2022-07-06T12:02:37;22.10;99.90
1888;DHT22;944;51.574;6.980;2022-07-06T12:05:07;22.10;99.90
1888;DHT22;944;51.574;6.980;2022-07-06T12:07:36;22.00;99.90
1888;DHT22;944;51.574;6.980;2022-07-06T12:10:05;21.90;99.90
1888;DHT22;944;51.574;6.980;2022-07-06T12:12:34;22.00;99.90
1888;DHT22;944;51.574;6.980;2022-07-06T12:35:44;22.70;99.90
1888;DHT22;944;51.574;6.980;2022-07-06T12:38:24;22.70;99.90
1888;DHT22;944;51.574;6.980;2022-07-06T12:47:03;21.90;99.90
1888;DHT22;944;51.574;6.980;2022-07-06T12:50:03;21.70;99.90
1888;DHT22;944;51.574;6.980;2022-07-06T13:03:39;22.20;99.90
1888;DHT22;944;51.574;6.980;2022-07-06T13:06:07;22.50;99.90
1888;DHT22;944;51.574;6.980;2022-07-06T13:08:33;22.30;99.90
1888;DHT22;944;51.574;6.980;2022-07-06T13:11:00;22.20;99.90
1888;DHT22;944;51.574;6.980;2022-07-06T13:13:27;22.00;99.90
1888;DHT22;944;51.574;6.980;2022-07-06T13:19:38;21.40;99.90
1888;DHT22;944;51.574;6.980;2022-07-06T13:22:08;21.20;99.90
1888;DHT22;944;51.574;6.980;2022-07-06T13:24:38;21.50;99.90
1888;DHT22;944;51.574;6.980;2022-07-06T13:27:06;21.70;99.90
1888;DHT22;944;51.574;6.980;2022-07-06T13:29:39;22.00;99.90
1888;DHT22;944;51.574;6.980;2022-07-06T13:32:14;22.10;99.90
1888;DHT22;944;51.574;6.980;2022-07-06T13:34:48;22.30;99.90
1888;DHT22;944;51.574;6.980;2022-07-06T13:37:15;22.20;99.90
1888;DHT22;944;51.574;6.980;2022-07-06T13:39:45;22.20;99.90
1888;DHT22;944;51.574;6.980;2022-07-06T13:42:16;22.40;99.90
1888;DHT22;944;51.574;6.980;2022-07-06T13:44:45;22.40;99.90
1888;DHT22;944;51.574;6.980;2022-07-06T13:47:12;22.60;99.90
1888;DHT22;944;51.574;6.980;2022-07-06T13:53:23;22.80;99.90
1888;DHT22;944;51.574;6.980;2022-07-06T13:55:50;22.70;99.90
1888;DHT22;944;51.574;6.980;2022-07-06T13:58:18;22.80;99.90
1888;DHT22;944;51.574;6.980;2022-07-06T14:00:46;23.00;99.90
1888;DHT22;944;51.574;6.980;2022-07-06T14:03:13;22.60;99.90
1888;DHT22;944;51.574;6.980;2022-07-06T14:05:40;22.50;99.90
1888;DHT22;944;51.574;6.980;2022-07-06T14:08:07;22.60;99.90
1888;DHT22;944;51.574;6.980;2022-07-06T14:10:36;22.70;99.90
1888;DHT22;944;51.574;6.980;2022-07-06T14:13:02;22.60;99.90
1888;DHT22;944;51.574;6.980;2022-07-06T14:15:37;22.50;99.90
1888;DHT22;944;51.574;6.980;2022-07-06T14:18:04;22.50;99.90
1888;DHT22;944;51.574;6.980;2022-07-06T14:24:12;22.40;99.90
1888;DHT22;944;51.574;6.980;2022-07-06T14:26:41;22.60;99.90
1888;DHT22;944;51.574;6.980;2022-07-06T14:32:59;23.10;99.90
1888;DHT22;944;51.574;6.980;2022-07-06T14:35:27;23.20;99.90
1888;DHT22;944;51.574;6.980;2022-07-06T14:41:34;23.20;99.90
1888;DHT22;944;51.574;6.980;2022-07-06T14:44:04;23.00;99.90
1888;DHT22;944;51.574;6.980;2022-07-06T14:46:31;22.50;99.90
1888;DHT22;944;51.574;6.980;2022-07-06T14:48:59;22.20;99.90
1888;DHT22;944;51.574;6.980;2022-07-06T14:51:27;22.00;99.90
1888;DHT22;944;51.574;6.980;2022-07-06T14:53:57;22.20;99.90
1888;DHT22;944;51.574;6.980;2022-07-06T15:00:15;22.00;99.90
1888;DHT22;944;51.574;6.980;2022-07-06T15:02:46;22.00;99.90
1888;DHT22;944;51.574;6.980;2022-07-06T15:16:24;22.80;99.90
1888;DHT22;944;51.574;6.980;2022-07-06T15:25:49;22.50;99.90
1888;DHT22;944;51.574;6.980;2022-07-06T15:28:22;22.10;99.90
1888;DHT22;944;51.574;6.980;2022-07-06T15:33:28;22.10;99.90
1888;DHT22;944;51.574;6.980;2022-07-06T15:36:03;22.30;99.90
1888;DHT22;944;51.574;6.980;2022-07-06T15:38:34;22.50;99.90
1888;DHT22;944;51.574;6.980;2022-07-06T15:41:02;22.70;99.90
1888;DHT22;944;51.574;6.980;2022-07-06T15:43:29;22.40;99.90
1888;DHT22;944;51.574;6.980;2022-07-06T15:45:58;22.40;99.90
1888;DHT22;944;51.574;6.980;2022-07-06T15:48:28;22.30;99.90
1888;DHT22;944;51.574;6.980;2022-07-06T15:50:56;22.20;99.90
1888;DHT22;944;51.574;6.980;2022-07-06T15:53:32;22.10;99.90
1888;DHT22;944;51.574;6.980;2022-07-06T15:56:00;22.10;99.90
1888;DHT22;944;51.574;6.980;2022-07-06T15:58:28;22.00;99.90
1888;DHT22;944;51.574;6.980;2022-07-06T16:00:55;22.00;99.90
1888;DHT22;944;51.574;6.980;2022-07-06T16:07:04;22.30;99.90
1888;DHT22;944;51.574;6.980;2022-07-06T16:09:31;22.60;99.90
1888;DHT22;944;51.574;6.980;2022-07-06T16:12:02;22.60;99.90
1888;DHT22;944;51.574;6.980;2022-07-06T16:14:30;22.60;99.90
1888;DHT22;944;51.574;6.980;2022-07-06T16:16:57;22.50;99.90
1888;DHT22;944;51.574;6.980;2022-07-06T16:19:30;22.40;99.90
1888;DHT22;944;51.574;6.980;2022-07-06T16:22:00;22.40;99.90
1888;DHT22;944;51.574;6.980;2022-07-06T16:24:30;22.50;99.90
1888;DHT22;944;51.574;6.980;2022-07-06T16:26:57;22.70;99.90
1888;DHT22;944;51.574;6.980;2022-07-06T16:29:24;22.80;99.90
1888;DHT22;944;51.574;6.980;2022-07-06T16:31:51;22.80;99.90
1888;DHT22;944;51.574;6.980;2022-07-06T16:37:59;22.40;99.90
1888;DHT22;944;51.574;6.980;2022-07-06T16:40:27;22.40;99.90
1888;DHT22;944;51.574;6.980;2022-07-06T16:42:58;22.20;99.90
1888;DHT22;944;51.574;6.980;2022-07-06T16:56:59;22.20;99.90
1888;DHT22;944;51.574;6.980;2022-07-06T16:59:30;22.10;99.90
1888;DHT22;944;51.574;6.980;2022-07-06T17:02:23;22.10;99.90
1888;DHT22;944;51.574;6.980;2022-07-06T17:10:54;21.80;99.90
1888;DHT22;944;51.574;6.980;2022-07-06T17:13:49;21.70;99.90
1888;DHT22;944;51.574;6.980;2022-07-06T17:27:56;21.80;99.90
1888;DHT22;944;51.574;6.980;2022-07-06T17:30:45;21.50;99.90
1888;DHT22;944;51.574;6.980;2022-07-06T17:43:31;21.30;99.90
1888;DHT22;944;51.574;6.980;2022-07-06T17:46:09;21.30;99.90
1888;DHT22;944;51.574;6.980;2022-07-06T17:49:14;21.20;99.90
1888;DHT22;944;51.574;6.980;2022-07-06T17:52:17;21.20;99.90
1888;DHT22;944;51.574;6.980;2022-07-06T17:55:23;21.30;99.90
1888;DHT22;944;51.574;6.980;2022-07-06T17:58:33;21.00;99.90
1888;DHT22;944;51.574;6.980;2022-07-06T18:05:25;20.90;99.90
1888;DHT22;944;51.574;6.980;2022-07-06T18:08:38;20.90;99.90
1888;DHT22;944;51.574;6.980;2022-07-06T18:14:27;20.70;99.90
1888;DHT22;944;51.574;6.980;2022-07-06T18:29:04;20.80;99.90
1888;DHT22;944;51.574;6.980;2022-07-06T18:31:57;20.90;99.90
1888;DHT22;944;51.574;6.980;2022-07-06T18:34:37;20.90;99.90
1888;DHT22;944;51.574;6.980;2022-07-06T18:56:09;20.50;99.90
1888;DHT22;944;51.574;6.980;2022-07-06T18:59:46;20.30;99.90
1888;DHT22;944;51.574;6.980;2022-07-06T19:03:05;20.20;99.90
1888;DHT22;944;51.574;6.980;2022-07-06T19:09:48;20.00;99.90
1888;DHT22;944;51.574;6.980;2022-07-06T19:16:54;20.00;99.90
